sensor_id;sensor_type;location;lat;lon;timestamp;P1;durP1;ratioP1;P2;durP2;ratioP2
75866;SDS011;64513;56.258;43.980;2022-11-11T00:00:36;52.80;;;20.15;;
75866;SDS011;64513;56.258;43.980;2022-11-11T00:03:02;51.63;;;19.40;;
75866;SDS011;64513;56.258;43.980;2022-11-11T00:05:29;56.25;;;18.92;;
75866;SDS011;64513;56.258;43.980;2022-11-11T00:07:54;53.05;;;19.98;;
75866;SDS011;64513;56.258;43.980;2022-11-11T00:10:20;49.80;;;18.87;;
75866;SDS011;64513;56.258;43.980;2022-11-11T00:12:46;51.88;;;19.17;;
75866;SDS011;64513;56.258;43.980;2022-11-11T00:15:11;47.20;;;19.27;;
75866;SDS011;64513;56.258;43.980;2022-11-11T00:17:37;53.83;;;19.17;;
75866;SDS011;64513;56.258;43.980;2022-11-11T00:20:02;50.00;;;20.07;;
75866;SDS011;64513;56.258;43.980;2022-11-11T00:22:28;49.03;;;19.83;;
75866;SDS011;64513;56.258;43.980;2022-11-11T00:24:54;47.57;;;18.93;;
75866;SDS011;64513;56.258;43.980;2022-11-11T00:27:19;49.03;;;19.40;;
75866;SDS011;64513;56.258;43.980;2022-11-11T00:29:49;50.72;;;19.95;;
75866;SDS011;64513;56.258;43.980;2022-11-11T00:32:14;52.60;;;20.33;;
75866;SDS011;64513;56.258;43.980;2022-11-11T00:34:40;55.42;;;19.55;;
75866;SDS011;64513;56.258;43.980;2022-11-11T00:37:05;50.27;;;19.83;;
75866;SDS011;64513;56.258;43.980;2022-11-11T00:39:31;51.97;;;19.00;;
75866;SDS011;64513;56.258;43.980;2022-11-11T00:41:56;52.25;;;19.20;;
75866;SDS011;64513;56.258;43.980;2022-11-11T00:44:22;47.93;;;18.43;;
75866;SDS011;64513;56.258;43.980;2022-11-11T00:46:47;56.00;;;20.23;;
75866;SDS011;64513;56.258;43.980;2022-11-11T00:49:13;56.33;;;19.67;;
75866;SDS011;64513;56.258;43.980;2022-11-11T00:51:38;56.73;;;20.10;;
75866;SDS011;64513;56.258;43.980;2022-11-11T00:54:04;50.92;;;19.33;;
75866;SDS011;64513;56.258;43.980;2022-11-11T00:56:30;65.17;;;19.47;;
75866;SDS011;64513;56.258;43.980;2022-11-11T00:58:56;51.65;;;19.05;;
75866;SDS011;64513;56.258;43.980;2022-11-11T01:01:21;51.67;;;17.93;;
75866;SDS011;64513;56.258;43.980;2022-11-11T01:03:47;52.80;;;18.63;;
75866;SDS011;64513;56.258;43.980;2022-11-11T01:06:12;53.38;;;18.58;;
75866;SDS011;64513;56.258;43.980;2022-11-11T01:08:38;54.70;;;19.10;;
75866;SDS011;64513;56.258;43.980;2022-11-11T01:11:11;55.47;;;19.23;;
75866;SDS011;64513;56.258;43.980;2022-11-11T01:13:40;45.53;;;17.58;;
75866;SDS011;64513;56.258;43.980;2022-11-11T01:16:09;51.20;;;18.63;;
75866;SDS011;64513;56.258;43.980;2022-11-11T01:18:37;44.60;;;17.00;;
75866;SDS011;64513;56.258;43.980;2022-11-11T01:21:04;50.00;;;18.52;;
75866;SDS011;64513;56.258;43.980;2022-11-11T01:23:32;46.17;;;17.85;;
75866;SDS011;64513;56.258;43.980;2022-11-11T01:26:03;45.10;;;17.42;;
75866;SDS011;64513;56.258;43.980;2022-11-11T01:28:30;53.10;;;16.70;;
75866;SDS011;64513;56.258;43.980;2022-11-11T01:31:15;48.83;;;16.65;;
75866;SDS011;64513;56.258;43.980;2022-11-11T01:33:41;52.17;;;17.25;;
75866;SDS011;64513;56.258;43.980;2022-11-11T01:36:08;44.87;;;16.87;;
75866;SDS011;64513;56.258;43.980;2022-11-11T01:38:36;43.22;;;17.02;;
75866;SDS011;64513;56.258;43.980;2022-11-11T01:41:03;42.75;;;16.50;;
75866;SDS011;64513;56.258;43.980;2022-11-11T01:43:30;39.45;;;15.18;;
75866;SDS011;64513;56.258;43.980;2022-11-11T01:45:59;41.67;;;15.83;;
75866;SDS011;64513;56.258;43.980;2022-11-11T01:48:39;37.33;;;14.63;;
75866;SDS011;64513;56.258;43.980;2022-11-11T01:51:11;37.20;;;14.93;;
75866;SDS011;64513;56.258;43.980;2022-11-11T01:53:43;39.10;;;14.95;;
75866;SDS011;64513;56.258;43.980;2022-11-11T01:56:11;43.17;;;16.30;;
75866;SDS011;64513;56.258;43.980;2022-11-11T01:58:36;43.60;;;15.27;;
75866;SDS011;64513;56.258;43.980;2022-11-11T02:01:02;42.43;;;15.23;;
75866;SDS011;64513;56.258;43.980;2022-11-11T02:03:29;41.53;;;15.90;;
75866;SDS011;64513;56.258;43.980;2022-11-11T02:05:59;43.05;;;14.27;;
75866;SDS011;64513;56.258;43.980;2022-11-11T02:08:32;40.83;;;16.07;;
75866;SDS011;64513;56.258;43.980;2022-11-11T02:11:10;43.08;;;16.27;;
75866;SDS011;64513;56.258;43.980;2022-11-11T02:13:41;38.85;;;14.63;;
75866;SDS011;64513;56.258;43.980;2022-11-11T02:16:08;42.15;;;14.98;;
75866;SDS011;64513;56.258;43.980;2022-11-11T02:18:33;37.93;;;15.03;;
75866;SDS011;64513;56.258;43.980;2022-11-11T02:20:58;40.27;;;15.63;;
75866;SDS011;64513;56.258;43.980;2022-11-11T02:23:26;38.47;;;14.40;;
75866;SDS011;64513;56.258;43.980;2022-11-11T02:25:54;38.73;;;14.63;;
75866;SDS011;64513;56.258;43.980;2022-11-11T02:28:22;36.53;;;14.32;;
75866;SDS011;64513;56.258;43.980;2022-11-11T02:30:50;38.92;;;16.02;;
75866;SDS011;64513;56.258;43.980;2022-11-11T02:33:15;32.83;;;14.23;;
75866;SDS011;64513;56.258;43.980;2022-11-11T02:35:44;37.97;;;15.30;;
75866;SDS011;64513;56.258;43.980;2022-11-11T02:38:13;40.93;;;14.80;;
75866;SDS011;64513;56.258;43.980;2022-11-11T02:43:05;39.78;;;14.73;;
75866;SDS011;64513;56.258;43.980;2022-11-11T02:45:30;45.20;;;16.70;;
75866;SDS011;64513;56.258;43.980;2022-11-11T02:47:56;40.43;;;15.50;;
75866;SDS011;64513;56.258;43.980;2022-11-11T02:50:21;37.30;;;15.60;;
75866;SDS011;64513;56.258;43.980;2022-11-11T02:52:47;41.17;;;15.30;;
75866;SDS011;64513;56.258;43.980;2022-11-11T02:55:13;40.30;;;16.73;;
75866;SDS011;64513;56.258;43.980;2022-11-11T02:57:38;40.63;;;16.48;;
75866;SDS011;64513;56.258;43.980;2022-11-11T03:00:04;37.77;;;15.77;;
75866;SDS011;64513;56.258;43.980;2022-11-11T03:02:31;48.70;;;16.83;;
75866;SDS011;64513;56.258;43.980;2022-11-11T03:04:56;42.33;;;16.45;;
75866;SDS011;64513;56.258;43.980;2022-11-11T03:07:23;40.93;;;15.80;;
75866;SDS011;64513;56.258;43.980;2022-11-11T03:09:49;42.13;;;16.52;;
75866;SDS011;64513;56.258;43.980;2022-11-11T03:12:15;42.73;;;16.50;;
75866;SDS011;64513;56.258;43.980;2022-11-11T03:14:41;47.75;;;16.58;;
75866;SDS011;64513;56.258;43.980;2022-11-11T03:17:07;49.40;;;17.65;;
75866;SDS011;64513;56.258;43.980;2022-11-11T03:19:33;45.38;;;18.08;;
75866;SDS011;64513;56.258;43.980;2022-11-11T03:21:58;46.63;;;17.80;;
75866;SDS011;64513;56.258;43.980;2022-11-11T03:24:24;49.63;;;18.73;;
75866;SDS011;64513;56.258;43.980;2022-11-11T03:26:50;54.42;;;19.52;;
75866;SDS011;64513;56.258;43.980;2022-11-11T03:29:15;51.27;;;18.07;;
75866;SDS011;64513;56.258;43.980;2022-11-11T03:31:40;51.80;;;19.83;;
75866;SDS011;64513;56.258;43.980;2022-11-11T03:34:06;50.28;;;17.90;;
75866;SDS011;64513;56.258;43.980;2022-11-11T03:36:31;46.90;;;19.03;;
75866;SDS011;64513;56.258;43.980;2022-11-11T03:38:57;52.10;;;19.30;;
75866;SDS011;64513;56.258;43.980;2022-11-11T03:41:22;48.87;;;18.63;;
75866;SDS011;64513;56.258;43.980;2022-11-11T03:43:48;48.53;;;17.60;;
75866;SDS011;64513;56.258;43.980;2022-11-11T03:46:13;49.13;;;17.92;;
75866;SDS011;64513;56.258;43.980;2022-11-11T03:48:38;49.90;;;18.13;;
75866;SDS011;64513;56.258;43.980;2022-11-11T03:51:04;46.50;;;17.60;;
75866;SDS011;64513;56.258;43.980;2022-11-11T03:53:30;43.67;;;17.52;;
75866;SDS011;64513;56.258;43.980;2022-11-11T03:55:55;48.90;;;17.00;;
75866;SDS011;64513;56.258;43.980;2022-11-11T03:58:20;41.17;;;15.80;;
75866;SDS011;64513;56.258;43.980;2022-11-11T04:00:46;42.75;;;16.25;;
75866;SDS011;64513;56.258;43.980;2022-11-11T04:03:12;44.07;;;16.63;;
75866;SDS011;64513;56.258;43.980;2022-11-11T04:05:39;43.47;;;18.50;;
75866;SDS011;64513;56.258;43.980;2022-11-11T04:08:07;43.33;;;17.60;;
75866;SDS011;64513;56.258;43.980;2022-11-11T04:10:35;42.17;;;17.27;;
75866;SDS011;64513;56.258;43.980;2022-11-11T04:13:01;40.05;;;17.63;;
75866;SDS011;64513;56.258;43.980;2022-11-11T04:15:27;41.17;;;17.03;;
75866;SDS011;64513;56.258;43.980;2022-11-11T04:17:53;46.88;;;18.02;;
75866;SDS011;64513;56.258;43.980;2022-11-11T04:20:18;41.93;;;16.40;;
75866;SDS011;64513;56.258;43.980;2022-11-11T04:22:44;38.73;;;15.03;;
75866;SDS011;64513;56.258;43.980;2022-11-11T04:25:09;42.37;;;16.27;;
75866;SDS011;64513;56.258;43.980;2022-11-11T04:27:35;36.65;;;15.18;;
75866;SDS011;64513;56.258;43.980;2022-11-11T04:30:00;42.40;;;15.83;;
75866;SDS011;64513;56.258;43.980;2022-11-11T04:32:26;45.07;;;16.87;;
75866;SDS011;64513;56.258;43.980;2022-11-11T04:34:55;41.88;;;16.08;;
75866;SDS011;64513;56.258;43.980;2022-11-11T04:37:22;41.73;;;15.63;;
75866;SDS011;64513;56.258;43.980;2022-11-11T04:39:49;43.50;;;15.95;;
75866;SDS011;64513;56.258;43.980;2022-11-11T04:42:15;43.83;;;16.40;;
75866;SDS011;64513;56.258;43.980;2022-11-11T04:44:40;43.87;;;16.57;;
75866;SDS011;64513;56.258;43.980;2022-11-11T04:47:05;40.13;;;16.77;;
75866;SDS011;64513;56.258;43.980;2022-11-11T04:49:31;40.13;;;15.37;;
75866;SDS011;64513;56.258;43.980;2022-11-11T04:51:56;37.47;;;16.13;;
75866;SDS011;64513;56.258;43.980;2022-11-11T04:54:22;40.57;;;16.73;;
75866;SDS011;64513;56.258;43.980;2022-11-11T04:56:48;39.30;;;15.67;;
75866;SDS011;64513;56.258;43.980;2022-11-11T04:59:13;38.00;;;16.27;;
75866;SDS011;64513;56.258;43.980;2022-11-11T05:01:39;36.00;;;15.10;;
75866;SDS011;64513;56.258;43.980;2022-11-11T05:04:04;38.08;;;15.80;;
75866;SDS011;64513;56.258;43.980;2022-11-11T05:06:30;41.07;;;15.87;;
75866;SDS011;64513;56.258;43.980;2022-11-11T05:08:55;39.57;;;14.90;;
75866;SDS011;64513;56.258;43.980;2022-11-11T05:11:22;35.72;;;15.10;;
75866;SDS011;64513;56.258;43.980;2022-11-11T05:13:49;38.33;;;16.60;;
75866;SDS011;64513;56.258;43.980;2022-11-11T05:16:17;34.70;;;14.35;;
75866;SDS011;64513;56.258;43.980;2022-11-11T05:18:45;36.13;;;13.77;;
75866;SDS011;64513;56.258;43.980;2022-11-11T05:21:14;36.47;;;14.77;;
75866;SDS011;64513;56.258;43.980;2022-11-11T05:23:43;38.22;;;15.18;;
75866;SDS011;64513;56.258;43.980;2022-11-11T05:26:09;36.07;;;14.90;;
75866;SDS011;64513;56.258;43.980;2022-11-11T05:28:34;37.37;;;14.87;;
75866;SDS011;64513;56.258;43.980;2022-11-11T05:30:59;35.13;;;14.38;;
75866;SDS011;64513;56.258;43.980;2022-11-11T05:33:25;32.33;;;13.90;;
75866;SDS011;64513;56.258;43.980;2022-11-11T05:35:50;35.00;;;13.37;;
75866;SDS011;64513;56.258;43.980;2022-11-11T05:38:16;33.20;;;13.52;;
75866;SDS011;64513;56.258;43.980;2022-11-11T05:40:41;35.80;;;13.30;;
75866;SDS011;64513;56.258;43.980;2022-11-11T05:43:07;33.37;;;13.63;;
75866;SDS011;64513;56.258;43.980;2022-11-11T05:45:32;34.23;;;13.33;;
75866;SDS011;64513;56.258;43.980;2022-11-11T05:48:01;32.33;;;13.30;;
75866;SDS011;64513;56.258;43.980;2022-11-11T05:50:26;36.10;;;14.25;;
75866;SDS011;64513;56.258;43.980;2022-11-11T05:52:52;34.13;;;14.20;;
75866;SDS011;64513;56.258;43.980;2022-11-11T05:55:17;30.57;;;13.30;;
75866;SDS011;64513;56.258;43.980;2022-11-11T05:57:43;36.90;;;13.98;;
75866;SDS011;64513;56.258;43.980;2022-11-11T06:00:09;32.43;;;13.40;;
75866;SDS011;64513;56.258;43.980;2022-11-11T06:02:38;39.35;;;14.48;;
75866;SDS011;64513;56.258;43.980;2022-11-11T06:05:04;36.78;;;13.55;;
75866;SDS011;64513;56.258;43.980;2022-11-11T06:07:30;42.70;;;15.43;;
75866;SDS011;64513;56.258;43.980;2022-11-11T06:09:55;41.37;;;15.27;;
75866;SDS011;64513;56.258;43.980;2022-11-11T06:12:21;37.22;;;14.73;;
75866;SDS011;64513;56.258;43.980;2022-11-11T06:14:46;35.17;;;14.30;;
75866;SDS011;64513;56.258;43.980;2022-11-11T06:17:12;42.40;;;15.43;;
75866;SDS011;64513;56.258;43.980;2022-11-11T06:19:37;39.55;;;16.15;;
75866;SDS011;64513;56.258;43.980;2022-11-11T06:22:02;40.50;;;15.60;;
75866;SDS011;64513;56.258;43.980;2022-11-11T06:24:28;42.37;;;16.23;;
75866;SDS011;64513;56.258;43.980;2022-11-11T06:26:54;40.00;;;16.13;;
75866;SDS011;64513;56.258;43.980;2022-11-11T06:29:19;40.70;;;15.73;;
75866;SDS011;64513;56.258;43.980;2022-11-11T06:31:45;43.95;;;14.95;;
75866;SDS011;64513;56.258;43.980;2022-11-11T06:34:10;43.50;;;14.80;;
75866;SDS011;64513;56.258;43.980;2022-11-11T06:36:36;40.40;;;15.30;;
75866;SDS011;64513;56.258;43.980;2022-11-11T06:39:02;40.75;;;14.80;;
75866;SDS011;64513;56.258;43.980;2022-11-11T06:41:27;42.13;;;15.17;;
75866;SDS011;64513;56.258;43.980;2022-11-11T06:43:53;37.70;;;14.57;;
75866;SDS011;64513;56.258;43.980;2022-11-11T06:46:22;36.13;;;14.77;;
75866;SDS011;64513;56.258;43.980;2022-11-11T06:48:48;39.72;;;14.23;;
75866;SDS011;64513;56.258;43.980;2022-11-11T06:51:14;34.43;;;12.67;;
75866;SDS011;64513;56.258;43.980;2022-11-11T06:53:40;39.05;;;14.48;;
75866;SDS011;64513;56.258;43.980;2022-11-11T06:56:06;40.47;;;14.82;;
75866;SDS011;64513;56.258;43.980;2022-11-11T06:58:33;37.13;;;14.20;;
75866;SDS011;64513;56.258;43.980;2022-11-11T07:00:58;33.33;;;13.30;;
75866;SDS011;64513;56.258;43.980;2022-11-11T07:03:27;37.92;;;14.10;;
75866;SDS011;64513;56.258;43.980;2022-11-11T07:05:53;36.37;;;14.03;;
75866;SDS011;64513;56.258;43.980;2022-11-11T07:08:18;34.07;;;12.83;;
75866;SDS011;64513;56.258;43.980;2022-11-11T07:10:45;36.53;;;13.20;;
75866;SDS011;64513;56.258;43.980;2022-11-11T07:13:12;36.20;;;13.13;;
75866;SDS011;64513;56.258;43.980;2022-11-11T07:15:39;31.55;;;11.82;;
75866;SDS011;64513;56.258;43.980;2022-11-11T07:18:06;34.40;;;13.25;;
75866;SDS011;64513;56.258;43.980;2022-11-11T07:20:32;34.78;;;13.35;;
75866;SDS011;64513;56.258;43.980;2022-11-11T07:22:57;31.83;;;12.37;;
75866;SDS011;64513;56.258;43.980;2022-11-11T07:25:23;26.87;;;11.63;;
75866;SDS011;64513;56.258;43.980;2022-11-11T07:27:48;31.17;;;12.73;;
75866;SDS011;64513;56.258;43.980;2022-11-11T07:30:14;33.60;;;12.52;;
75866;SDS011;64513;56.258;43.980;2022-11-11T07:32:43;29.73;;;11.93;;
75866;SDS011;64513;56.258;43.980;2022-11-11T07:35:10;30.95;;;13.20;;
75866;SDS011;64513;56.258;43.980;2022-11-11T07:37:35;30.00;;;12.20;;
75866;SDS011;64513;56.258;43.980;2022-11-11T07:40:01;29.02;;;12.88;;
75866;SDS011;64513;56.258;43.980;2022-11-11T07:42:28;33.95;;;13.32;;
75866;SDS011;64513;56.258;43.980;2022-11-11T07:44:53;30.00;;;12.40;;
75866;SDS011;64513;56.258;43.980;2022-11-11T07:47:19;27.37;;;11.77;;
75866;SDS011;64513;56.258;43.980;2022-11-11T07:49:44;26.73;;;11.00;;
75866;SDS011;64513;56.258;43.980;2022-11-11T07:52:10;28.13;;;12.60;;
75866;SDS011;64513;56.258;43.980;2022-11-11T07:54:35;27.07;;;10.77;;
75866;SDS011;64513;56.258;43.980;2022-11-11T07:57:00;26.70;;;11.55;;
75866;SDS011;64513;56.258;43.980;2022-11-11T07:59:26;22.57;;;9.80;;
75866;SDS011;64513;56.258;43.980;2022-11-11T08:01:51;24.30;;;10.17;;
75866;SDS011;64513;56.258;43.980;2022-11-11T08:04:17;22.13;;;9.57;;
75866;SDS011;64513;56.258;43.980;2022-11-11T08:06:42;24.80;;;11.25;;
75866;SDS011;64513;56.258;43.980;2022-11-11T08:09:08;22.37;;;9.70;;
75866;SDS011;64513;56.258;43.980;2022-11-11T08:11:33;24.13;;;10.53;;
75866;SDS011;64513;56.258;43.980;2022-11-11T08:13:59;25.85;;;10.43;;
75866;SDS011;64513;56.258;43.980;2022-11-11T08:16:24;27.40;;;11.10;;
75866;SDS011;64513;56.258;43.980;2022-11-11T08:18:50;26.00;;;10.73;;
75866;SDS011;64513;56.258;43.980;2022-11-11T08:21:16;23.88;;;10.05;;
75866;SDS011;64513;56.258;43.980;2022-11-11T08:23:41;20.90;;;9.53;;
75866;SDS011;64513;56.258;43.980;2022-11-11T08:26:07;21.93;;;9.63;;
75866;SDS011;64513;56.258;43.980;2022-11-11T08:28:32;23.93;;;9.67;;
75866;SDS011;64513;56.258;43.980;2022-11-11T08:30:59;23.47;;;9.53;;
75866;SDS011;64513;56.258;43.980;2022-11-11T08:33:26;23.15;;;9.32;;
75866;SDS011;64513;56.258;43.980;2022-11-11T08:35:52;20.15;;;9.45;;
75866;SDS011;64513;56.258;43.980;2022-11-11T08:38:22;21.00;;;9.52;;
75866;SDS011;64513;56.258;43.980;2022-11-11T08:40:49;22.05;;;8.63;;
75866;SDS011;64513;56.258;43.980;2022-11-11T08:43:15;19.67;;;8.33;;
75866;SDS011;64513;56.258;43.980;2022-11-11T08:45:41;21.92;;;9.27;;
75866;SDS011;64513;56.258;43.980;2022-11-11T08:48:07;16.67;;;8.18;;
75866;SDS011;64513;56.258;43.980;2022-11-11T08:50:34;19.52;;;9.38;;
75866;SDS011;64513;56.258;43.980;2022-11-11T08:53:00;22.17;;;10.27;;
75866;SDS011;64513;56.258;43.980;2022-11-11T08:55:26;22.17;;;9.80;;
75866;SDS011;64513;56.258;43.980;2022-11-11T08:57:58;20.83;;;9.17;;
75866;SDS011;64513;56.258;43.980;2022-11-11T09:00:24;23.88;;;9.02;;
75866;SDS011;64513;56.258;43.980;2022-11-11T09:02:51;16.33;;;7.95;;
75866;SDS011;64513;56.258;43.980;2022-11-11T09:05:17;17.27;;;8.20;;
75866;SDS011;64513;56.258;43.980;2022-11-11T09:07:43;18.45;;;8.30;;
75866;SDS011;64513;56.258;43.980;2022-11-11T09:10:08;15.53;;;7.93;;
75866;SDS011;64513;56.258;43.980;2022-11-11T09:12:34;21.55;;;7.72;;
75866;SDS011;64513;56.258;43.980;2022-11-11T09:14:59;18.80;;;7.67;;
75866;SDS011;64513;56.258;43.980;2022-11-11T09:17:25;17.83;;;8.25;;
75866;SDS011;64513;56.258;43.980;2022-11-11T09:19:51;15.52;;;7.70;;
75866;SDS011;64513;56.258;43.980;2022-11-11T09:22:17;16.60;;;7.53;;
75866;SDS011;64513;56.258;43.980;2022-11-11T09:24:42;18.40;;;8.15;;
75866;SDS011;64513;56.258;43.980;2022-11-11T09:27:09;17.07;;;7.17;;
75866;SDS011;64513;56.258;43.980;2022-11-11T09:29:35;15.90;;;7.00;;
75866;SDS011;64513;56.258;43.980;2022-11-11T09:32:00;15.40;;;6.80;;
75866;SDS011;64513;56.258;43.980;2022-11-11T09:34:26;13.67;;;7.00;;
75866;SDS011;64513;56.258;43.980;2022-11-11T09:36:51;14.13;;;7.07;;
75866;SDS011;64513;56.258;43.980;2022-11-11T09:39:17;14.93;;;7.67;;
75866;SDS011;64513;56.258;43.980;2022-11-11T09:44:23;19.80;;;9.52;;
75866;SDS011;64513;56.258;43.980;2022-11-11T09:49:58;20.30;;;10.75;;
75866;SDS011;64513;56.258;43.980;2022-11-11T09:55:17;21.48;;;10.77;;
75866;SDS011;64513;56.258;43.980;2022-11-11T09:57:45;19.98;;;9.88;;
75866;SDS011;64513;56.258;43.980;2022-11-11T10:00:34;22.25;;;9.65;;
75866;SDS011;64513;56.258;43.980;2022-11-11T10:03:09;20.48;;;9.38;;
75866;SDS011;64513;56.258;43.980;2022-11-11T10:08:16;17.65;;;8.77;;
75866;SDS011;64513;56.258;43.980;2022-11-11T10:10:50;16.38;;;7.95;;
75866;SDS011;64513;56.258;43.980;2022-11-11T10:13:33;17.00;;;8.18;;
75866;SDS011;64513;56.258;43.980;2022-11-11T10:16:20;16.58;;;8.95;;
75866;SDS011;64513;56.258;43.980;2022-11-11T10:21:25;20.42;;;9.13;;
75866;SDS011;64513;56.258;43.980;2022-11-11T10:24:00;22.60;;;9.63;;
75866;SDS011;64513;56.258;43.980;2022-11-11T10:26:38;24.77;;;10.32;;
75866;SDS011;64513;56.258;43.980;2022-11-11T10:29:17;21.90;;;9.45;;
75866;SDS011;64513;56.258;43.980;2022-11-11T10:32:08;22.80;;;9.05;;
75866;SDS011;64513;56.258;43.980;2022-11-11T10:34:35;17.85;;;8.18;;
75866;SDS011;64513;56.258;43.980;2022-11-11T10:37:01;21.10;;;9.50;;
75866;SDS011;64513;56.258;43.980;2022-11-11T10:42:24;19.25;;;8.90;;
75866;SDS011;64513;56.258;43.980;2022-11-11T10:44:49;24.03;;;9.87;;
75866;SDS011;64513;56.258;43.980;2022-11-11T10:47:23;20.58;;;9.15;;
75866;SDS011;64513;56.258;43.980;2022-11-11T10:49:58;19.52;;;8.95;;
75866;SDS011;64513;56.258;43.980;2022-11-11T10:52:47;21.23;;;9.73;;
75866;SDS011;64513;56.258;43.980;2022-11-11T10:55:42;20.93;;;8.10;;
75866;SDS011;64513;56.258;43.980;2022-11-11T10:58:19;21.20;;;9.88;;
75866;SDS011;64513;56.258;43.980;2022-11-11T11:00:54;19.83;;;9.13;;
75866;SDS011;64513;56.258;43.980;2022-11-11T11:03:25;18.83;;;9.13;;
75866;SDS011;64513;56.258;43.980;2022-11-11T11:06:03;20.45;;;8.98;;
75866;SDS011;64513;56.258;43.980;2022-11-11T11:08:36;18.63;;;8.57;;
75866;SDS011;64513;56.258;43.980;2022-11-11T11:11:09;17.55;;;8.70;;
75866;SDS011;64513;56.258;43.980;2022-11-11T11:13:50;21.30;;;9.63;;
75866;SDS011;64513;56.258;43.980;2022-11-11T11:16:21;24.90;;;10.63;;
75866;SDS011;64513;56.258;43.980;2022-11-11T11:21:57;20.95;;;9.18;;
75866;SDS011;64513;56.258;43.980;2022-11-11T11:24:35;21.45;;;9.45;;
75866;SDS011;64513;56.258;43.980;2022-11-11T11:27:18;21.70;;;8.03;;
75866;SDS011;64513;56.258;43.980;2022-11-11T11:29:53;20.20;;;8.73;;
75866;SDS011;64513;56.258;43.980;2022-11-11T11:32:33;19.23;;;8.32;;
75866;SDS011;64513;56.258;43.980;2022-11-11T11:34:58;20.07;;;9.60;;
75866;SDS011;64513;56.258;43.980;2022-11-11T11:37:25;21.13;;;9.63;;
75866;SDS011;64513;56.258;43.980;2022-11-11T11:40:00;19.13;;;9.10;;
75866;SDS011;64513;56.258;43.980;2022-11-11T11:42:33;21.02;;;8.95;;
75866;SDS011;64513;56.258;43.980;2022-11-11T11:50:44;18.07;;;7.47;;
75866;SDS011;64513;56.258;43.980;2022-11-11T11:59:08;23.10;;;11.35;;
75866;SDS011;64513;56.258;43.980;2022-11-11T12:04:21;19.27;;;9.10;;
75866;SDS011;64513;56.258;43.980;2022-11-11T12:10:14;20.75;;;8.75;;
75866;SDS011;64513;56.258;43.980;2022-11-11T12:12:58;19.75;;;9.25;;
75866;SDS011;64513;56.258;43.980;2022-11-11T12:20:51;18.98;;;8.80;;
75866;SDS011;64513;56.258;43.980;2022-11-11T12:26:52;15.95;;;7.50;;
75866;SDS011;64513;56.258;43.980;2022-11-11T12:29:25;15.75;;;7.70;;
75866;SDS011;64513;56.258;43.980;2022-11-11T12:40:22;19.10;;;8.93;;
75866;SDS011;64513;56.258;43.980;2022-11-11T12:43:20;19.15;;;8.88;;
75866;SDS011;64513;56.258;43.980;2022-11-11T12:46:53;20.73;;;8.88;;
75866;SDS011;64513;56.258;43.980;2022-11-11T12:52:19;23.73;;;9.23;;
75866;SDS011;64513;56.258;43.980;2022-11-11T12:55:08;27.05;;;10.77;;
75866;SDS011;64513;56.258;43.980;2022-11-11T13:06:42;29.00;;;12.20;;
75866;SDS011;64513;56.258;43.980;2022-11-11T13:17:03;31.27;;;13.93;;
75866;SDS011;64513;56.258;43.980;2022-11-11T13:19:45;29.57;;;11.33;;
75866;SDS011;64513;56.258;43.980;2022-11-11T13:22:26;29.38;;;12.57;;
75866;SDS011;64513;56.258;43.980;2022-11-11T13:24:56;27.70;;;12.88;;
75866;SDS011;64513;56.258;43.980;2022-11-11T13:33:43;27.83;;;10.83;;
75866;SDS011;64513;56.258;43.980;2022-11-11T13:36:13;32.50;;;13.02;;
75866;SDS011;64513;56.258;43.980;2022-11-11T13:38:45;34.58;;;12.88;;
75866;SDS011;64513;56.258;43.980;2022-11-11T13:43:51;33.58;;;13.75;;
75866;SDS011;64513;56.258;43.980;2022-11-11T13:49:09;39.33;;;14.10;;
75866;SDS011;64513;56.258;43.980;2022-11-11T13:52:24;33.17;;;12.98;;
75866;SDS011;64513;56.258;43.980;2022-11-11T13:55:02;35.53;;;13.13;;
75866;SDS011;64513;56.258;43.980;2022-11-11T13:57:32;45.13;;;15.45;;
75866;SDS011;64513;56.258;43.980;2022-11-11T13:59:59;38.27;;;13.93;;
75866;SDS011;64513;56.258;43.980;2022-11-11T14:02:32;34.85;;;14.43;;
75866;SDS011;64513;56.258;43.980;2022-11-11T14:12:44;36.00;;;15.80;;
75866;SDS011;64513;56.258;43.980;2022-11-11T14:18:32;42.88;;;15.10;;
75866;SDS011;64513;56.258;43.980;2022-11-11T14:21:00;38.72;;;16.35;;
75866;SDS011;64513;56.258;43.980;2022-11-11T14:26:15;42.70;;;14.88;;
75866;SDS011;64513;56.258;43.980;2022-11-11T14:37:08;44.05;;;14.57;;
75866;SDS011;64513;56.258;43.980;2022-11-11T14:39:53;38.75;;;13.30;;
75866;SDS011;64513;56.258;43.980;2022-11-11T14:44:57;41.38;;;14.07;;
75866;SDS011;64513;56.258;43.980;2022-11-11T14:47:24;47.50;;;14.65;;
75866;SDS011;64513;56.258;43.980;2022-11-11T14:49:55;45.03;;;15.77;;
75866;SDS011;64513;56.258;43.980;2022-11-11T14:52:25;42.25;;;13.98;;
75866;SDS011;64513;56.258;43.980;2022-11-11T14:57:44;46.70;;;15.23;;
75866;SDS011;64513;56.258;43.980;2022-11-11T15:00:26;52.88;;;16.58;;
75866;SDS011;64513;56.258;43.980;2022-11-11T15:02:57;52.23;;;16.33;;
75866;SDS011;64513;56.258;43.980;2022-11-11T15:05:39;49.03;;;16.48;;
75866;SDS011;64513;56.258;43.980;2022-11-11T15:11:20;48.15;;;15.50;;
75866;SDS011;64513;56.258;43.980;2022-11-11T15:13:58;48.08;;;14.75;;
75866;SDS011;64513;56.258;43.980;2022-11-11T15:30:42;68.37;;;15.00;;
75866;SDS011;64513;56.258;43.980;2022-11-11T15:33:43;45.60;;;14.25;;
75866;SDS011;64513;56.258;43.980;2022-11-11T15:36:19;69.97;;;14.10;;
75866;SDS011;64513;56.258;43.980;2022-11-11T15:38:54;41.80;;;14.45;;
75866;SDS011;64513;56.258;43.980;2022-11-11T15:41:26;148.07;;;16.65;;
75866;SDS011;64513;56.258;43.980;2022-11-11T15:43:57;64.45;;;16.17;;
75866;SDS011;64513;56.258;43.980;2022-11-11T15:46:25;61.73;;;14.77;;
75866;SDS011;64513;56.258;43.980;2022-11-11T15:48:52;70.72;;;14.25;;
75866;SDS011;64513;56.258;43.980;2022-11-11T15:51:25;51.87;;;13.27;;
75866;SDS011;64513;56.258;43.980;2022-11-11T15:53:53;49.08;;;13.90;;
75866;SDS011;64513;56.258;43.980;2022-11-11T15:56:28;50.80;;;14.60;;
75866;SDS011;64513;56.258;43.980;2022-11-11T15:58:55;44.85;;;14.60;;
75866;SDS011;64513;56.258;43.980;2022-11-11T16:01:25;40.55;;;14.60;;
75866;SDS011;64513;56.258;43.980;2022-11-11T16:03:53;39.58;;;14.13;;
75866;SDS011;64513;56.258;43.980;2022-11-11T16:06:19;55.35;;;15.23;;
75866;SDS011;64513;56.258;43.980;2022-11-11T16:08:48;46.60;;;13.03;;
75866;SDS011;64513;56.258;43.980;2022-11-11T16:11:17;55.17;;;14.95;;
75866;SDS011;64513;56.258;43.980;2022-11-11T16:16:20;46.28;;;15.55;;
75866;SDS011;64513;56.258;43.980;2022-11-11T16:21:27;45.67;;;15.43;;
75866;SDS011;64513;56.258;43.980;2022-11-11T16:23:56;44.63;;;15.50;;
75866;SDS011;64513;56.258;43.980;2022-11-11T16:26:23;39.95;;;14.65;;
75866;SDS011;64513;56.258;43.980;2022-11-11T16:28:53;43.28;;;15.25;;
75866;SDS011;64513;56.258;43.980;2022-11-11T16:36:58;41.42;;;15.63;;
75866;SDS011;64513;56.258;43.980;2022-11-11T16:39:26;41.55;;;15.15;;
75866;SDS011;64513;56.258;43.980;2022-11-11T16:41:53;41.17;;;15.35;;
75866;SDS011;64513;56.258;43.980;2022-11-11T16:47:03;38.83;;;14.17;;